sensor_id;sensor_type;location;lat;lon;timestamp;P1;durP1;ratioP1;P2;durP2;ratioP2
79460;SDS011;68929;42.666;23.324;2023-12-22T00:01:08;30.65;;;20.77;;
79460;SDS011;68929;42.666;23.324;2023-12-22T00:03:33;29.67;;;19.98;;
79460;SDS011;68929;42.666;23.324;2023-12-22T00:05:58;26.17;;;19.05;;
79460;SDS011;68929;42.666;23.324;2023-12-22T00:08:24;28.77;;;19.80;;
79460;SDS011;68929;42.666;23.324;2023-12-22T00:10:49;25.00;;;18.35;;
79460;SDS011;68929;42.666;23.324;2023-12-22T00:13:15;25.63;;;17.58;;
79460;SDS011;68929;42.666;23.324;2023-12-22T00:15:40;27.52;;;19.70;;
79460;SDS011;68929;42.666;23.324;2023-12-22T00:18:07;27.70;;;18.35;;
79460;SDS011;68929;42.666;23.324;2023-12-22T00:20:33;25.55;;;18.58;;
79460;SDS011;68929;42.666;23.324;2023-12-22T00:22:58;25.85;;;19.20;;
79460;SDS011;68929;42.666;23.324;2023-12-22T00:25:24;25.85;;;18.08;;
79460;SDS011;68929;42.666;23.324;2023-12-22T00:27:49;23.98;;;17.05;;
79460;SDS011;68929;42.666;23.324;2023-12-22T00:30:14;24.77;;;18.38;;
79460;SDS011;68929;42.666;23.324;2023-12-22T00:32:40;27.95;;;20.00;;
79460;SDS011;68929;42.666;23.324;2023-12-22T00:35:05;28.77;;;20.67;;
79460;SDS011;68929;42.666;23.324;2023-12-22T00:37:31;29.40;;;20.67;;
79460;SDS011;68929;42.666;23.324;2023-12-22T00:39:56;27.10;;;17.73;;
79460;SDS011;68929;42.666;23.324;2023-12-22T00:42:22;29.65;;;20.27;;
79460;SDS011;68929;42.666;23.324;2023-12-22T00:44:47;25.45;;;18.15;;
79460;SDS011;68929;42.666;23.324;2023-12-22T00:47:12;27.02;;;18.50;;
79460;SDS011;68929;42.666;23.324;2023-12-22T00:49:38;22.50;;;17.08;;
79460;SDS011;68929;42.666;23.324;2023-12-22T00:52:04;21.38;;;15.77;;
79460;SDS011;68929;42.666;23.324;2023-12-22T00:54:29;22.13;;;15.80;;
79460;SDS011;68929;42.666;23.324;2023-12-22T00:56:56;26.80;;;19.25;;
79460;SDS011;68929;42.666;23.324;2023-12-22T00:59:22;21.50;;;16.30;;
79460;SDS011;68929;42.666;23.324;2023-12-22T01:01:48;22.38;;;16.25;;
79460;SDS011;68929;42.666;23.324;2023-12-22T01:04:13;21.73;;;16.63;;
79460;SDS011;68929;42.666;23.324;2023-12-22T01:06:39;25.30;;;16.73;;
79460;SDS011;68929;42.666;23.324;2023-12-22T01:09:05;21.65;;;15.65;;
79460;SDS011;68929;42.666;23.324;2023-12-22T01:11:31;24.73;;;16.73;;
79460;SDS011;68929;42.666;23.324;2023-12-22T01:13:56;25.58;;;18.60;;
79460;SDS011;68929;42.666;23.324;2023-12-22T01:16:22;25.85;;;17.67;;
79460;SDS011;68929;42.666;23.324;2023-12-22T01:18:49;20.80;;;16.15;;
79460;SDS011;68929;42.666;23.324;2023-12-22T01:21:17;28.00;;;18.10;;
79460;SDS011;68929;42.666;23.324;2023-12-22T01:23:43;24.83;;;16.63;;
79460;SDS011;68929;42.666;23.324;2023-12-22T01:26:08;24.50;;;17.02;;
79460;SDS011;68929;42.666;23.324;2023-12-22T01:28:34;26.85;;;16.70;;
79460;SDS011;68929;42.666;23.324;2023-12-22T01:30:59;26.55;;;18.23;;
79460;SDS011;68929;42.666;23.324;2023-12-22T01:33:25;23.85;;;16.75;;
79460;SDS011;68929;42.666;23.324;2023-12-22T01:35:51;25.17;;;16.80;;
79460;SDS011;68929;42.666;23.324;2023-12-22T01:38:17;22.40;;;15.93;;
79460;SDS011;68929;42.666;23.324;2023-12-22T01:40:42;30.08;;;17.73;;
79460;SDS011;68929;42.666;23.324;2023-12-22T01:43:07;25.52;;;18.23;;
79460;SDS011;68929;42.666;23.324;2023-12-22T01:45:33;23.70;;;17.23;;
79460;SDS011;68929;42.666;23.324;2023-12-22T01:47:58;24.27;;;15.65;;
79460;SDS011;68929;42.666;23.324;2023-12-22T01:50:24;22.38;;;15.68;;
79460;SDS011;68929;42.666;23.324;2023-12-22T01:52:50;22.48;;;15.85;;
79460;SDS011;68929;42.666;23.324;2023-12-22T01:55:16;22.48;;;15.98;;
79460;SDS011;68929;42.666;23.324;2023-12-22T01:57:42;23.25;;;16.38;;
79460;SDS011;68929;42.666;23.324;2023-12-22T02:00:09;23.20;;;16.63;;
79460;SDS011;68929;42.666;23.324;2023-12-22T02:02:36;20.23;;;14.80;;
79460;SDS011;68929;42.666;23.324;2023-12-22T02:05:03;23.35;;;15.82;;
79460;SDS011;68929;42.666;23.324;2023-12-22T02:07:29;23.08;;;15.63;;
79460;SDS011;68929;42.666;23.324;2023-12-22T02:09:55;23.95;;;16.65;;
79460;SDS011;68929;42.666;23.324;2023-12-22T02:12:21;22.67;;;15.55;;
79460;SDS011;68929;42.666;23.324;2023-12-22T02:14:47;23.15;;;15.93;;
79460;SDS011;68929;42.666;23.324;2023-12-22T02:17:20;23.65;;;14.02;;
79460;SDS011;68929;42.666;23.324;2023-12-22T02:19:48;20.90;;;13.68;;
79460;SDS011;68929;42.666;23.324;2023-12-22T02:22:13;21.98;;;15.15;;
79460;SDS011;68929;42.666;23.324;2023-12-22T02:24:39;22.70;;;14.55;;
79460;SDS011;68929;42.666;23.324;2023-12-22T02:27:07;22.50;;;15.48;;
79460;SDS011;68929;42.666;23.324;2023-12-22T02:35:24;20.48;;;14.38;;
79460;SDS011;68929;42.666;23.324;2023-12-22T02:37:51;21.80;;;14.95;;
79460;SDS011;68929;42.666;23.324;2023-12-22T02:40:19;21.13;;;15.38;;
79460;SDS011;68929;42.666;23.324;2023-12-22T02:42:45;20.23;;;14.43;;
79460;SDS011;68929;42.666;23.324;2023-12-22T02:45:15;19.67;;;14.85;;
79460;SDS011;68929;42.666;23.324;2023-12-22T02:47:41;19.00;;;14.02;;
79460;SDS011;68929;42.666;23.324;2023-12-22T02:50:07;21.45;;;14.52;;
79460;SDS011;68929;42.666;23.324;2023-12-22T02:52:33;19.25;;;13.82;;
79460;SDS011;68929;42.666;23.324;2023-12-22T02:54:59;18.55;;;13.73;;
79460;SDS011;68929;42.666;23.324;2023-12-22T02:57:24;17.98;;;13.77;;
79460;SDS011;68929;42.666;23.324;2023-12-22T02:59:49;19.77;;;14.75;;
79460;SDS011;68929;42.666;23.324;2023-12-22T03:02:15;22.75;;;15.98;;
79460;SDS011;68929;42.666;23.324;2023-12-22T03:04:40;21.13;;;15.13;;
79460;SDS011;68929;42.666;23.324;2023-12-22T03:07:06;21.15;;;13.55;;
79460;SDS011;68929;42.666;23.324;2023-12-22T03:09:31;19.10;;;13.73;;
79460;SDS011;68929;42.666;23.324;2023-12-22T03:11:58;18.67;;;14.13;;
79460;SDS011;68929;42.666;23.324;2023-12-22T03:14:28;18.95;;;13.93;;
79460;SDS011;68929;42.666;23.324;2023-12-22T03:19:23;19.23;;;13.88;;
79460;SDS011;68929;42.666;23.324;2023-12-22T03:21:49;21.17;;;14.77;;
79460;SDS011;68929;42.666;23.324;2023-12-22T03:24:14;19.83;;;13.93;;
79460;SDS011;68929;42.666;23.324;2023-12-22T03:26:40;21.42;;;15.60;;
79460;SDS011;68929;42.666;23.324;2023-12-22T03:29:05;21.67;;;15.68;;
79460;SDS011;68929;42.666;23.324;2023-12-22T03:31:30;19.35;;;13.25;;
79460;SDS011;68929;42.666;23.324;2023-12-22T03:33:56;19.65;;;13.77;;
79460;SDS011;68929;42.666;23.324;2023-12-22T03:36:21;22.60;;;15.18;;
79460;SDS011;68929;42.666;23.324;2023-12-22T03:38:47;19.67;;;14.15;;
79460;SDS011;68929;42.666;23.324;2023-12-22T03:41:15;22.10;;;15.18;;
79460;SDS011;68929;42.666;23.324;2023-12-22T03:43:41;19.23;;;14.18;;
79460;SDS011;68929;42.666;23.324;2023-12-22T03:46:06;22.38;;;15.07;;
79460;SDS011;68929;42.666;23.324;2023-12-22T03:48:32;21.27;;;15.68;;
79460;SDS011;68929;42.666;23.324;2023-12-22T03:50:58;20.90;;;15.18;;
79460;SDS011;68929;42.666;23.324;2023-12-22T03:53:23;21.15;;;14.20;;
79460;SDS011;68929;42.666;23.324;2023-12-22T03:55:48;20.52;;;14.75;;
79460;SDS011;68929;42.666;23.324;2023-12-22T03:58:14;22.70;;;15.68;;
79460;SDS011;68929;42.666;23.324;2023-12-22T04:00:39;22.15;;;15.75;;
79460;SDS011;68929;42.666;23.324;2023-12-22T04:03:04;25.65;;;16.25;;
79460;SDS011;68929;42.666;23.324;2023-12-22T04:05:30;25.08;;;17.77;;
79460;SDS011;68929;42.666;23.324;2023-12-22T04:07:55;23.92;;;17.75;;
79460;SDS011;68929;42.666;23.324;2023-12-22T04:10:21;28.63;;;19.00;;
79460;SDS011;68929;42.666;23.324;2023-12-22T04:12:46;28.65;;;20.45;;
79460;SDS011;68929;42.666;23.324;2023-12-22T04:15:11;30.60;;;21.23;;
79460;SDS011;68929;42.666;23.324;2023-12-22T04:17:40;31.90;;;21.98;;
79460;SDS011;68929;42.666;23.324;2023-12-22T04:20:06;37.78;;;22.73;;
79460;SDS011;68929;42.666;23.324;2023-12-22T04:22:32;29.10;;;19.80;;
79460;SDS011;68929;42.666;23.324;2023-12-22T04:24:57;26.73;;;18.92;;
79460;SDS011;68929;42.666;23.324;2023-12-22T04:27:23;28.88;;;21.13;;
79460;SDS011;68929;42.666;23.324;2023-12-22T04:29:48;21.52;;;14.05;;
79460;SDS011;68929;42.666;23.324;2023-12-22T04:32:14;24.67;;;17.65;;
79460;SDS011;68929;42.666;23.324;2023-12-22T04:34:39;26.75;;;17.48;;
79460;SDS011;68929;42.666;23.324;2023-12-22T04:37:05;20.00;;;14.40;;
79460;SDS011;68929;42.666;23.324;2023-12-22T04:39:30;22.52;;;14.73;;
79460;SDS011;68929;42.666;23.324;2023-12-22T04:41:56;25.67;;;18.50;;
79460;SDS011;68929;42.666;23.324;2023-12-22T04:44:21;26.15;;;18.35;;
79460;SDS011;68929;42.666;23.324;2023-12-22T04:46:47;25.77;;;17.58;;
79460;SDS011;68929;42.666;23.324;2023-12-22T04:49:12;30.92;;;20.30;;
79460;SDS011;68929;42.666;23.324;2023-12-22T04:51:37;23.45;;;17.40;;
79460;SDS011;68929;42.666;23.324;2023-12-22T04:54:03;29.45;;;21.33;;
79460;SDS011;68929;42.666;23.324;2023-12-22T04:56:28;15.55;;;11.70;;
79460;SDS011;68929;42.666;23.324;2023-12-22T04:58:54;21.55;;;15.60;;
79460;SDS011;68929;42.666;23.324;2023-12-22T05:01:19;20.02;;;14.43;;
79460;SDS011;68929;42.666;23.324;2023-12-22T05:03:45;23.70;;;16.52;;
79460;SDS011;68929;42.666;23.324;2023-12-22T05:06:11;23.70;;;14.00;;
79460;SDS011;68929;42.666;23.324;2023-12-22T05:08:36;23.75;;;18.65;;
79460;SDS011;68929;42.666;23.324;2023-12-22T05:11:02;26.27;;;17.85;;
79460;SDS011;68929;42.666;23.324;2023-12-22T05:13:28;19.65;;;14.70;;
79460;SDS011;68929;42.666;23.324;2023-12-22T05:15:53;24.00;;;17.58;;
79460;SDS011;68929;42.666;23.324;2023-12-22T05:18:20;22.10;;;17.40;;
79460;SDS011;68929;42.666;23.324;2023-12-22T05:20:45;22.38;;;15.32;;
79460;SDS011;68929;42.666;23.324;2023-12-22T05:23:11;18.00;;;12.95;;
79460;SDS011;68929;42.666;23.324;2023-12-22T05:25:36;24.23;;;17.55;;
79460;SDS011;68929;42.666;23.324;2023-12-22T05:28:01;21.63;;;14.05;;
79460;SDS011;68929;42.666;23.324;2023-12-22T05:30:27;20.25;;;13.82;;
79460;SDS011;68929;42.666;23.324;2023-12-22T05:32:52;22.92;;;15.73;;
79460;SDS011;68929;42.666;23.324;2023-12-22T05:35:19;24.33;;;16.33;;
79460;SDS011;68929;42.666;23.324;2023-12-22T05:37:45;31.77;;;18.40;;
79460;SDS011;68929;42.666;23.324;2023-12-22T05:40:10;29.50;;;19.60;;
79460;SDS011;68929;42.666;23.324;2023-12-22T05:42:36;29.80;;;19.05;;
79460;SDS011;68929;42.666;23.324;2023-12-22T05:45:02;26.13;;;19.17;;
79460;SDS011;68929;42.666;23.324;2023-12-22T05:47:28;19.15;;;14.93;;
79460;SDS011;68929;42.666;23.324;2023-12-22T05:49:53;26.73;;;18.85;;
79460;SDS011;68929;42.666;23.324;2023-12-22T05:52:19;27.90;;;18.02;;
79460;SDS011;68929;42.666;23.324;2023-12-22T05:54:44;17.73;;;13.30;;
79460;SDS011;68929;42.666;23.324;2023-12-22T05:57:10;21.33;;;13.25;;
79460;SDS011;68929;42.666;23.324;2023-12-22T05:59:35;21.63;;;15.02;;
79460;SDS011;68929;42.666;23.324;2023-12-22T06:02:01;25.80;;;15.82;;
79460;SDS011;68929;42.666;23.324;2023-12-22T06:04:27;17.92;;;12.65;;
79460;SDS011;68929;42.666;23.324;2023-12-22T06:06:53;21.95;;;14.48;;
79460;SDS011;68929;42.666;23.324;2023-12-22T06:09:18;28.65;;;15.50;;
79460;SDS011;68929;42.666;23.324;2023-12-22T06:11:45;20.00;;;13.30;;
79460;SDS011;68929;42.666;23.324;2023-12-22T06:14:16;20.13;;;14.50;;
79460;SDS011;68929;42.666;23.324;2023-12-22T06:16:50;15.98;;;12.27;;
79460;SDS011;68929;42.666;23.324;2023-12-22T06:19:16;22.15;;;15.77;;
79460;SDS011;68929;42.666;23.324;2023-12-22T06:21:41;21.90;;;16.05;;
79460;SDS011;68929;42.666;23.324;2023-12-22T06:24:07;21.90;;;15.45;;
79460;SDS011;68929;42.666;23.324;2023-12-22T06:26:33;23.23;;;16.02;;
79460;SDS011;68929;42.666;23.324;2023-12-22T06:28:58;19.73;;;14.13;;
79460;SDS011;68929;42.666;23.324;2023-12-22T06:31:25;18.60;;;13.15;;
79460;SDS011;68929;42.666;23.324;2023-12-22T06:33:50;26.45;;;16.55;;
79460;SDS011;68929;42.666;23.324;2023-12-22T06:36:19;20.05;;;14.10;;
79460;SDS011;68929;42.666;23.324;2023-12-22T06:38:49;18.63;;;13.05;;
79460;SDS011;68929;42.666;23.324;2023-12-22T06:41:25;22.58;;;16.02;;
79460;SDS011;68929;42.666;23.324;2023-12-22T06:43:52;22.52;;;15.23;;
79460;SDS011;68929;42.666;23.324;2023-12-22T06:46:18;25.58;;;14.85;;
79460;SDS011;68929;42.666;23.324;2023-12-22T06:48:45;18.63;;;13.30;;
79460;SDS011;68929;42.666;23.324;2023-12-22T06:51:20;26.17;;;17.25;;
79460;SDS011;68929;42.666;23.324;2023-12-22T06:53:48;20.42;;;15.18;;
79460;SDS011;68929;42.666;23.324;2023-12-22T06:56:17;21.77;;;17.70;;
79460;SDS011;68929;42.666;23.324;2023-12-22T06:58:44;25.42;;;18.10;;
79460;SDS011;68929;42.666;23.324;2023-12-22T07:01:12;26.38;;;18.48;;
79460;SDS011;68929;42.666;23.324;2023-12-22T07:03:45;29.75;;;19.88;;
79460;SDS011;68929;42.666;23.324;2023-12-22T07:06:19;16.48;;;12.77;;
79460;SDS011;68929;42.666;23.324;2023-12-22T07:11:36;17.92;;;11.40;;
79460;SDS011;68929;42.666;23.324;2023-12-22T07:14:06;20.77;;;14.75;;
79460;SDS011;68929;42.666;23.324;2023-12-22T07:16:32;20.95;;;14.70;;
79460;SDS011;68929;42.666;23.324;2023-12-22T07:18:58;17.80;;;12.50;;
79460;SDS011;68929;42.666;23.324;2023-12-22T07:21:23;21.45;;;14.32;;
79460;SDS011;68929;42.666;23.324;2023-12-22T07:23:48;20.92;;;15.75;;
79460;SDS011;68929;42.666;23.324;2023-12-22T07:26:14;22.33;;;17.63;;
79460;SDS011;68929;42.666;23.324;2023-12-22T07:28:41;27.38;;;19.60;;
79460;SDS011;68929;42.666;23.324;2023-12-22T07:31:07;23.52;;;17.90;;
79460;SDS011;68929;42.666;23.324;2023-12-22T07:33:32;20.50;;;16.42;;
79460;SDS011;68929;42.666;23.324;2023-12-22T07:35:58;20.45;;;14.65;;
79460;SDS011;68929;42.666;23.324;2023-12-22T07:38:23;17.98;;;13.82;;
79460;SDS011;68929;42.666;23.324;2023-12-22T07:40:49;17.23;;;13.25;;
79460;SDS011;68929;42.666;23.324;2023-12-22T07:43:15;24.30;;;17.27;;
79460;SDS011;68929;42.666;23.324;2023-12-22T07:45:40;19.70;;;14.52;;
79460;SDS011;68929;42.666;23.324;2023-12-22T07:48:06;22.30;;;15.93;;
79460;SDS011;68929;42.666;23.324;2023-12-22T07:50:32;20.05;;;16.20;;
79460;SDS011;68929;42.666;23.324;2023-12-22T07:52:57;23.00;;;16.13;;
79460;SDS011;68929;42.666;23.324;2023-12-22T07:55:25;20.48;;;14.75;;
79460;SDS011;68929;42.666;23.324;2023-12-22T07:57:51;24.55;;;17.48;;
79460;SDS011;68929;42.666;23.324;2023-12-22T08:00:19;22.05;;;17.30;;
79460;SDS011;68929;42.666;23.324;2023-12-22T08:02:44;24.48;;;17.27;;
79460;SDS011;68929;42.666;23.324;2023-12-22T08:05:10;18.38;;;14.63;;
79460;SDS011;68929;42.666;23.324;2023-12-22T08:07:36;20.42;;;16.88;;
79460;SDS011;68929;42.666;23.324;2023-12-22T08:10:01;29.00;;;19.17;;
79460;SDS011;68929;42.666;23.324;2023-12-22T08:12:28;27.33;;;18.63;;
79460;SDS011;68929;42.666;23.324;2023-12-22T08:14:57;22.50;;;15.60;;
79460;SDS011;68929;42.666;23.324;2023-12-22T08:17:23;25.08;;;18.13;;
79460;SDS011;68929;42.666;23.324;2023-12-22T08:19:49;24.08;;;15.98;;
79460;SDS011;68929;42.666;23.324;2023-12-22T08:22:14;24.63;;;18.85;;
79460;SDS011;68929;42.666;23.324;2023-12-22T08:24:40;19.73;;;14.60;;
79460;SDS011;68929;42.666;23.324;2023-12-22T08:27:06;20.08;;;16.27;;
79460;SDS011;68929;42.666;23.324;2023-12-22T08:29:32;26.45;;;18.33;;
79460;SDS011;68929;42.666;23.324;2023-12-22T08:31:57;31.27;;;19.90;;
79460;SDS011;68929;42.666;23.324;2023-12-22T08:34:23;27.08;;;20.33;;
79460;SDS011;68929;42.666;23.324;2023-12-22T08:36:49;31.15;;;22.13;;
79460;SDS011;68929;42.666;23.324;2023-12-22T08:39:14;20.90;;;14.65;;
79460;SDS011;68929;42.666;23.324;2023-12-22T08:41:40;23.20;;;16.65;;
79460;SDS011;68929;42.666;23.324;2023-12-22T08:44:06;26.75;;;19.52;;
79460;SDS011;68929;42.666;23.324;2023-12-22T08:46:32;25.88;;;19.55;;
79460;SDS011;68929;42.666;23.324;2023-12-22T08:48:58;27.08;;;19.60;;
79460;SDS011;68929;42.666;23.324;2023-12-22T08:51:24;26.23;;;17.25;;
79460;SDS011;68929;42.666;23.324;2023-12-22T08:53:53;20.88;;;12.63;;
79460;SDS011;68929;42.666;23.324;2023-12-22T08:56:22;20.38;;;14.40;;
79460;SDS011;68929;42.666;23.324;2023-12-22T08:58:48;19.88;;;12.70;;
79460;SDS011;68929;42.666;23.324;2023-12-22T09:01:17;18.88;;;13.40;;
79460;SDS011;68929;42.666;23.324;2023-12-22T09:03:42;22.67;;;15.57;;
79460;SDS011;68929;42.666;23.324;2023-12-22T09:06:17;26.63;;;18.58;;
79460;SDS011;68929;42.666;23.324;2023-12-22T09:08:44;23.35;;;15.45;;
79460;SDS011;68929;42.666;23.324;2023-12-22T09:11:13;26.33;;;16.48;;
79460;SDS011;68929;42.666;23.324;2023-12-22T09:13:41;27.95;;;19.52;;
79460;SDS011;68929;42.666;23.324;2023-12-22T09:16:07;29.98;;;19.77;;
79460;SDS011;68929;42.666;23.324;2023-12-22T09:18:33;27.77;;;19.88;;
79460;SDS011;68929;42.666;23.324;2023-12-22T09:20:59;27.05;;;18.17;;
79460;SDS011;68929;42.666;23.324;2023-12-22T09:23:25;27.27;;;19.75;;
79460;SDS011;68929;42.666;23.324;2023-12-22T09:25:50;36.80;;;22.15;;
79460;SDS011;68929;42.666;23.324;2023-12-22T09:28:16;35.35;;;25.95;;
79460;SDS011;68929;42.666;23.324;2023-12-22T09:30:41;40.40;;;25.50;;
79460;SDS011;68929;42.666;23.324;2023-12-22T09:33:08;34.17;;;23.65;;
79460;SDS011;68929;42.666;23.324;2023-12-22T09:35:34;36.53;;;21.73;;
79460;SDS011;68929;42.666;23.324;2023-12-22T09:38:00;24.88;;;18.75;;
79460;SDS011;68929;42.666;23.324;2023-12-22T09:40:25;33.38;;;23.30;;
79460;SDS011;68929;42.666;23.324;2023-12-22T09:42:52;34.10;;;24.95;;
79460;SDS011;68929;42.666;23.324;2023-12-22T09:45:27;32.13;;;24.23;;
79460;SDS011;68929;42.666;23.324;2023-12-22T09:47:56;36.80;;;24.00;;
79460;SDS011;68929;42.666;23.324;2023-12-22T09:50:23;30.98;;;24.65;;
79460;SDS011;68929;42.666;23.324;2023-12-22T09:52:49;34.63;;;22.92;;
79460;SDS011;68929;42.666;23.324;2023-12-22T09:55:18;22.73;;;16.88;;
79460;SDS011;68929;42.666;23.324;2023-12-22T09:57:51;30.45;;;20.23;;
79460;SDS011;68929;42.666;23.324;2023-12-22T10:00:21;39.35;;;23.20;;
79460;SDS011;68929;42.666;23.324;2023-12-22T10:02:47;36.30;;;20.90;;
79460;SDS011;68929;42.666;23.324;2023-12-22T10:05:13;37.47;;;20.23;;
79460;SDS011;68929;42.666;23.324;2023-12-22T10:07:42;40.20;;;25.25;;
79460;SDS011;68929;42.666;23.324;2023-12-22T10:10:10;28.38;;;20.17;;
79460;SDS011;68929;42.666;23.324;2023-12-22T10:12:38;34.17;;;22.38;;
79460;SDS011;68929;42.666;23.324;2023-12-22T10:15:06;24.48;;;17.73;;
79460;SDS011;68929;42.666;23.324;2023-12-22T10:17:34;27.50;;;19.15;;
79460;SDS011;68929;42.666;23.324;2023-12-22T10:19:59;23.23;;;16.23;;
79460;SDS011;68929;42.666;23.324;2023-12-22T10:22:25;28.92;;;21.63;;
79460;SDS011;68929;42.666;23.324;2023-12-22T10:24:50;30.10;;;20.85;;
79460;SDS011;68929;42.666;23.324;2023-12-22T10:27:16;27.17;;;19.35;;
79460;SDS011;68929;42.666;23.324;2023-12-22T10:29:49;22.27;;;16.73;;
79460;SDS011;68929;42.666;23.324;2023-12-22T10:32:15;25.70;;;17.38;;
79460;SDS011;68929;42.666;23.324;2023-12-22T10:34:41;27.42;;;19.95;;
79460;SDS011;68929;42.666;23.324;2023-12-22T10:37:08;24.70;;;18.52;;
79460;SDS011;68929;42.666;23.324;2023-12-22T10:39:35;31.88;;;22.33;;
79460;SDS011;68929;42.666;23.324;2023-12-22T10:42:01;25.90;;;19.27;;
79460;SDS011;68929;42.666;23.324;2023-12-22T10:44:32;21.35;;;17.23;;
79460;SDS011;68929;42.666;23.324;2023-12-22T10:46:58;19.55;;;14.73;;
79460;SDS011;68929;42.666;23.324;2023-12-22T10:49:27;24.33;;;18.95;;
79460;SDS011;68929;42.666;23.324;2023-12-22T10:52:05;19.52;;;15.90;;
79460;SDS011;68929;42.666;23.324;2023-12-22T10:54:31;29.50;;;20.17;;
79460;SDS011;68929;42.666;23.324;2023-12-22T10:56:59;23.98;;;17.50;;
79460;SDS011;68929;42.666;23.324;2023-12-22T10:59:27;28.92;;;20.88;;
79460;SDS011;68929;42.666;23.324;2023-12-22T11:01:53;21.20;;;14.85;;
79460;SDS011;68929;42.666;23.324;2023-12-22T11:04:29;17.70;;;12.35;;
79460;SDS011;68929;42.666;23.324;2023-12-22T11:07:07;17.15;;;10.52;;
79460;SDS011;68929;42.666;23.324;2023-12-22T11:10:06;13.57;;;9.00;;
79460;SDS011;68929;42.666;23.324;2023-12-22T11:12:39;13.93;;;10.02;;
79460;SDS011;68929;42.666;23.324;2023-12-22T11:15:07;12.00;;;8.25;;
79460;SDS011;68929;42.666;23.324;2023-12-22T11:17:34;13.85;;;9.20;;
79460;SDS011;68929;42.666;23.324;2023-12-22T11:20:00;10.63;;;8.45;;
79460;SDS011;68929;42.666;23.324;2023-12-22T11:22:27;11.18;;;8.82;;
79460;SDS011;68929;42.666;23.324;2023-12-22T11:24:53;14.32;;;8.32;;
79460;SDS011;68929;42.666;23.324;2023-12-22T11:27:22;13.70;;;7.95;;
79460;SDS011;68929;42.666;23.324;2023-12-22T11:29:50;3.97;;;2.88;;
79460;SDS011;68929;42.666;23.324;2023-12-22T11:32:16;3.92;;;3.33;;
79460;SDS011;68929;42.666;23.324;2023-12-22T11:34:43;3.88;;;3.13;;
79460;SDS011;68929;42.666;23.324;2023-12-22T11:37:16;3.17;;;2.30;;
79460;SDS011;68929;42.666;23.324;2023-12-22T11:39:45;3.30;;;2.40;;
79460;SDS011;68929;42.666;23.324;2023-12-22T11:42:16;4.22;;;3.70;;
79460;SDS011;68929;42.666;23.324;2023-12-22T11:44:44;3.17;;;2.50;;
79460;SDS011;68929;42.666;23.324;2023-12-22T11:47:10;3.55;;;2.80;;
79460;SDS011;68929;42.666;23.324;2023-12-22T11:49:38;3.10;;;2.80;;
79460;SDS011;68929;42.666;23.324;2023-12-22T11:52:10;5.18;;;3.60;;
79460;SDS011;68929;42.666;23.324;2023-12-22T11:54:49;5.97;;;3.50;;
79460;SDS011;68929;42.666;23.324;2023-12-22T12:02:46;1.63;;;1.40;;
79460;SDS011;68929;42.666;23.324;2023-12-22T12:05:19;1.90;;;1.70;;
79460;SDS011;68929;42.666;23.324;2023-12-22T12:07:48;2.88;;;2.58;;
79460;SDS011;68929;42.666;23.324;2023-12-22T12:13:25;2.60;;;2.13;;
79460;SDS011;68929;42.666;23.324;2023-12-22T12:15:54;2.13;;;1.75;;
79460;SDS011;68929;42.666;23.324;2023-12-22T12:18:23;2.17;;;1.90;;
79460;SDS011;68929;42.666;23.324;2023-12-22T12:20:49;4.07;;;2.15;;
79460;SDS011;68929;42.666;23.324;2023-12-22T12:23:15;2.50;;;1.80;;
79460;SDS011;68929;42.666;23.324;2023-12-22T12:25:42;2.90;;;2.47;;
79460;SDS011;68929;42.666;23.324;2023-12-22T12:28:11;2.83;;;1.85;;
79460;SDS011;68929;42.666;23.324;2023-12-22T12:30:37;1.50;;;1.27;;
79460;SDS011;68929;42.666;23.324;2023-12-22T12:33:10;3.28;;;1.98;;
79460;SDS011;68929;42.666;23.324;2023-12-22T12:35:37;2.00;;;1.65;;
79460;SDS011;68929;42.666;23.324;2023-12-22T12:38:04;4.57;;;1.85;;
79460;SDS011;68929;42.666;23.324;2023-12-22T12:40:32;3.13;;;2.10;;
79460;SDS011;68929;42.666;23.324;2023-12-22T12:43:08;2.55;;;1.90;;
79460;SDS011;68929;42.666;23.324;2023-12-22T12:45:34;3.88;;;2.00;;
79460;SDS011;68929;42.666;23.324;2023-12-22T12:48:00;2.88;;;2.20;;
79460;SDS011;68929;42.666;23.324;2023-12-22T12:50:27;3.85;;;1.75;;
79460;SDS011;68929;42.666;23.324;2023-12-22T12:52:59;2.00;;;1.55;;
79460;SDS011;68929;42.666;23.324;2023-12-22T12:55:25;2.22;;;1.92;;
79460;SDS011;68929;42.666;23.324;2023-12-22T12:57:54;2.38;;;1.95;;
79460;SDS011;68929;42.666;23.324;2023-12-22T13:00:27;2.72;;;2.10;;
79460;SDS011;68929;42.666;23.324;2023-12-22T13:03:00;2.97;;;2.13;;
79460;SDS011;68929;42.666;23.324;2023-12-22T13:05:29;3.90;;;2.10;;
79460;SDS011;68929;42.666;23.324;2023-12-22T13:08:14;1.95;;;1.40;;
79460;SDS011;68929;42.666;23.324;2023-12-22T13:10:40;2.03;;;1.70;;
79460;SDS011;68929;42.666;23.324;2023-12-22T13:13:06;2.45;;;1.58;;
79460;SDS011;68929;42.666;23.324;2023-12-22T13:15:31;2.28;;;1.60;;
79460;SDS011;68929;42.666;23.324;2023-12-22T13:17:57;3.90;;;1.60;;
79460;SDS011;68929;42.666;23.324;2023-12-22T13:20:22;2.47;;;1.88;;
79460;SDS011;68929;42.666;23.324;2023-12-22T13:22:48;3.20;;;2.20;;
79460;SDS011;68929;42.666;23.324;2023-12-22T13:25:14;2.58;;;2.08;;
79460;SDS011;68929;42.666;23.324;2023-12-22T13:30:11;2.53;;;2.00;;
79460;SDS011;68929;42.666;23.324;2023-12-22T13:32:37;3.47;;;2.42;;
79460;SDS011;68929;42.666;23.324;2023-12-22T13:35:02;2.38;;;2.08;;
79460;SDS011;68929;42.666;23.324;2023-12-22T13:37:29;5.57;;;2.05;;
79460;SDS011;68929;42.666;23.324;2023-12-22T13:39:58;3.67;;;2.28;;
79460;SDS011;68929;42.666;23.324;2023-12-22T13:42:24;3.25;;;2.10;;
79460;SDS011;68929;42.666;23.324;2023-12-22T13:44:50;3.83;;;2.58;;
79460;SDS011;68929;42.666;23.324;2023-12-22T13:47:17;5.30;;;2.63;;
79460;SDS011;68929;42.666;23.324;2023-12-22T13:49:44;4.75;;;2.70;;
79460;SDS011;68929;42.666;23.324;2023-12-22T13:52:26;5.40;;;2.13;;
79460;SDS011;68929;42.666;23.324;2023-12-22T13:54:52;4.65;;;2.38;;
79460;SDS011;68929;42.666;23.324;2023-12-22T13:57:20;3.75;;;1.83;;
79460;SDS011;68929;42.666;23.324;2023-12-22T13:59:49;3.28;;;2.30;;
79460;SDS011;68929;42.666;23.324;2023-12-22T14:02:14;4.57;;;2.35;;
79460;SDS011;68929;42.666;23.324;2023-12-22T14:04:40;2.90;;;1.83;;
79460;SDS011;68929;42.666;23.324;2023-12-22T14:07:06;2.75;;;2.00;;
79460;SDS011;68929;42.666;23.324;2023-12-22T14:09:31;2.55;;;2.00;;
79460;SDS011;68929;42.666;23.324;2023-12-22T14:11:58;3.53;;;2.42;;
79460;SDS011;68929;42.666;23.324;2023-12-22T14:14:24;1.77;;;1.35;;
79460;SDS011;68929;42.666;23.324;2023-12-22T14:16:49;3.85;;;2.08;;
79460;SDS011;68929;42.666;23.324;2023-12-22T14:19:15;3.47;;;2.60;;
79460;SDS011;68929;42.666;23.324;2023-12-22T14:21:40;3.45;;;2.30;;
79460;SDS011;68929;42.666;23.324;2023-12-22T14:24:06;5.43;;;2.50;;
79460;SDS011;68929;42.666;23.324;2023-12-22T14:26:31;3.08;;;1.90;;
79460;SDS011;68929;42.666;23.324;2023-12-22T14:28:56;2.95;;;2.30;;
79460;SDS011;68929;42.666;23.324;2023-12-22T14:31:22;4.78;;;2.75;;
79460;SDS011;68929;42.666;23.324;2023-12-22T14:33:47;4.82;;;2.70;;